Maersk Rosario — V2BG2 — position and weather

sailwx.info

Track history (hours):
 
Tides and Currents Weather Stations Pressure Air Temp Water Temp Dewpoint Dewpoint Depression Visibility Wind Speed Wind Dir Waves Ship Positions

Maersk Rosario

Last reported at 2014-Dec-15 00:13 UTC. Time now 2014-Dec-19 03:15 UTC.
Position N 25°55' W 079°54'.

Length 161.1 m; beam 25 m; draft 9.5 m.

Type: Ship (hazmat cat A). MMSI: 304814000.

Date/timePositionNaut miles runAvg speedWind from/ knotsBaromVisibWave heightAir tempDewpointWater temp
2014-Dec-15 00:13N 25°55' W 079°54'1117.5
2014-Dec-14 23:33N 26°03' W 080°03'4 3.7
2014-Dec-14 22:32N 26°04' W 080°07'0 0.0
2014-Dec-14 21:32N 26°04' W 080°07'0 0.0
2014-Dec-14 20:32N 26°04' W 080°07'0 0.0
2014-Dec-14 19:32N 26°04' W 080°07'0 0.0
2014-Dec-14 18:32N 26°04' W 080°07'0 0.0
2014-Dec-14 17:32N 26°04' W 080°07'0 0.0
2014-Dec-14 16:32N 26°04' W 080°07'0 0.0
2014-Dec-14 15:23N 26°04' W 080°07'0 0.0
2014-Dec-14 14:20N 26°04' W 080°07'0 0.0
2014-Dec-14 13:26N 26°04' W 080°07'0 0.0
2014-Dec-14 12:26N 26°04' W 080°07'0 0.0
2014-Dec-14 11:29N 26°04' W 080°07'0 0.0
2014-Dec-14 10:29N 26°04' W 080°07'0 0.0
2014-Dec-14 09:29N 26°04' W 080°07'0 0.0
2014-Dec-14 08:29N 26°04' W 080°07'0 0.0
2014-Dec-14 07:32N 26°04' W 080°07'0 0.0
2014-Dec-14 05:32N 26°04' W 080°07'0 0.0
2014-Dec-14 04:20N 26°04' W 080°07'0 0.0
2014-Dec-14 03:32N 26°04' W 080°07'0 0.0
2014-Dec-14 02:32N 26°04' W 080°07'0 0.0
2014-Dec-14 01:20N 26°04' W 080°07'1 1.4
2014-Dec-14 00:33N 26°05' W 080°07'7 7.2
2014-Dec-13 23:33N 26°02' W 079°60'6 5.5
2014-Dec-13 22:33N 25°58' W 079°56'  
Track history (hours):
 
Tides and Currents Weather Stations Pressure Air Temp Water Temp Dewpoint Dewpoint Depression Visibility Wind Speed Wind Dir Waves Ship Positions

Maersk Rosario

Last reported at 2014-Dec-15 00:13 UTC. Time now 2014-Dec-19 03:15 UTC.
Position N 25°55' W 079°54'.

Length 161.1 m; beam 25 m; draft 9.5 m.

Type: Ship (hazmat cat A). MMSI: 304814000.

Date/timePositionNaut miles runAvg speedWind from/ knotsBaromVisibWave heightAir tempDewpointWater temp
2014-Dec-15 00:13N 25°55' W 079°54'1117.5
2014-Dec-14 23:33N 26°03' W 080°03'4 3.7
2014-Dec-14 22:32N 26°04' W 080°07'0 0.0
2014-Dec-14 21:32N 26°04' W 080°07'0 0.0
2014-Dec-14 20:32N 26°04' W 080°07'0 0.0
2014-Dec-14 19:32N 26°04' W 080°07'0 0.0
2014-Dec-14 18:32N 26°04' W 080°07'0 0.0
2014-Dec-14 17:32N 26°04' W 080°07'0 0.0
2014-Dec-14 16:32N 26°04' W 080°07'0 0.0
2014-Dec-14 15:23N 26°04' W 080°07'0 0.0
2014-Dec-14 14:20N 26°04' W 080°07'0 0.0
2014-Dec-14 13:26N 26°04' W 080°07'0 0.0
2014-Dec-14 12:26N 26°04' W 080°07'0 0.0
2014-Dec-14 11:29N 26°04' W 080°07'0 0.0
2014-Dec-14 10:29N 26°04' W 080°07'0 0.0
2014-Dec-14 09:29N 26°04' W 080°07'0 0.0
2014-Dec-14 08:29N 26°04' W 080°07'0 0.0
2014-Dec-14 07:32N 26°04' W 080°07'0 0.0
2014-Dec-14 05:32N 26°04' W 080°07'0 0.0
2014-Dec-14 04:20N 26°04' W 080°07'0 0.0
2014-Dec-14 03:32N 26°04' W 080°07'0 0.0
2014-Dec-14 02:32N 26°04' W 080°07'0 0.0
2014-Dec-14 01:20N 26°04' W 080°07'1 1.4
2014-Dec-14 00:33N 26°05' W 080°07'7 7.2
2014-Dec-13 23:33N 26°02' W 079°60'6 5.5
2014-Dec-13 22:33N 25°58' W 079°56'  

Dump ship's entire track history